Main page
METAR-TAF:

METAR-TAF

Airports :

Doha International Airport

Doha, Qatar

latitude: 25-15-40N, longitude: 051-33-54E, elevation: 11 m

Current weather observation

The report was made 18 minutes ago, at 04:00 UTC
Wind 3 kt from the West/Northwest, varying between West and North
Temperature 22°C
Humidity 73%
Pressure 1021 hPa
Visibility: 8000 m

METAR: OTBD 090400Z 30003KT 260V350 8000 NSC 22/17 Q1021 NOSIG

Time: 07:18 (04:18 UTC)

Forecast

The report was made 5 hours and 19 minutes ago, at 22:59 UTC
Forecast valid from 09 at 00 UTC to 10 at 06 UTC
Wind 5 kt from the Northwest
Visibility: 8000 m
Temporary
from 09 at 00 UTC to 09 at 04 UTC
Visibility: 5000 m
haze
Probability 30% :
Temporary
from 09 at 00 UTC to 09 at 04 UTC
Visibility: 2000 m
mist
Becoming
from 09 at 08 UTC to 09 at 10 UTC
Wind 9 kt from the Northeast

TAF: OTBD 082259Z 0900/1006 31005KT 8000 NSC TEMPO 0900/0904 5000 HZ PROB30 TEMPO 0900/0904 2000 BR BECMG 0908/0910 05009KT

Weather observations and forecasts of more than 4000 airports (METAR and TAF reports).

The available stations are represented by yellow and red dots on the map.

Hover mouse over dot to see the name of the station.

Then click to see weather observations and forecasts.

To change the map : click on the green buttons with a black cross to zoom in, on the green button with a dash to zoom out, or on the green arrows for adjacent maps.


METAR-TAF: